Terminal Aerodrome Forecast
Issued by NWS Sioux Falls, SD

Home | Current Version | Previous Version | Graphics & Text | Print | Product List | Glossary Off
Versions: 1 2 3 4 5 6 7 8 9 10 11 12 13 14 15 16 17 18 19 20 21 22 23

000
FTUS43 KFSD 251727
TAFFSD
TAF
KFSD 251727Z 2518/2618 15009KT P6SM SCT100 BKN150
      TEMPO 2518/2520 VRB20G35KT 3SM TSRA SCT060CB OVC100
     FM252300 14008KT P6SM SCT050 BKN090
      TEMPO 2603/2605 4SM TSRA OVC035CB
     FM260900 13005KT 5SM BR BKN012
     FM261400 15004KT P6SM SCT012=

USA.gov is the U.S. government's official web portal to all federal, state and local government web resources and services.